sensor_id;sensor_type;location;lat;lon;timestamp;P1;durP1;ratioP1;P2;durP2;ratioP2
66619;SDS011;53484;51.356;6.732;2022-12-29T00:01:15;1.98;;;0.57;;
66619;SDS011;53484;51.356;6.732;2022-12-29T00:03:41;2.58;;;0.60;;
66619;SDS011;53484;51.356;6.732;2022-12-29T00:06:09;2.20;;;0.60;;
66619;SDS011;53484;51.356;6.732;2022-12-29T00:08:35;2.20;;;0.80;;
66619;SDS011;53484;51.356;6.732;2022-12-29T00:11:08;2.73;;;0.60;;
66619;SDS011;53484;51.356;6.732;2022-12-29T00:13:35;2.17;;;0.60;;
66619;SDS011;53484;51.356;6.732;2022-12-29T00:16:18;2.22;;;0.60;;
66619;SDS011;53484;51.356;6.732;2022-12-29T00:18:44;3.83;;;0.55;;
66619;SDS011;53484;51.356;6.732;2022-12-29T00:21:13;4.80;;;1.10;;
66619;SDS011;53484;51.356;6.732;2022-12-29T00:23:57;2.50;;;0.70;;
66619;SDS011;53484;51.356;6.732;2022-12-29T00:26:47;1.52;;;0.47;;
66619;SDS011;53484;51.356;6.732;2022-12-29T00:29:30;1.95;;;0.50;;
66619;SDS011;53484;51.356;6.732;2022-12-29T00:32:14;1.75;;;0.50;;
66619;SDS011;53484;51.356;6.732;2022-12-29T00:34:58;4.18;;;0.55;;
66619;SDS011;53484;51.356;6.732;2022-12-29T00:37:38;2.07;;;0.60;;
66619;SDS011;53484;51.356;6.732;2022-12-29T00:40:24;2.22;;;0.50;;
66619;SDS011;53484;51.356;6.732;2022-12-29T00:43:08;1.48;;;0.40;;
66619;SDS011;53484;51.356;6.732;2022-12-29T00:45:52;2.03;;;0.50;;
66619;SDS011;53484;51.356;6.732;2022-12-29T00:48:18;1.77;;;0.68;;
66619;SDS011;53484;51.356;6.732;2022-12-29T00:51:04;1.27;;;0.40;;
66619;SDS011;53484;51.356;6.732;2022-12-29T00:53:31;1.70;;;0.40;;
66619;SDS011;53484;51.356;6.732;2022-12-29T00:55:58;1.97;;;0.60;;
66619;SDS011;53484;51.356;6.732;2022-12-29T00:58:27;1.90;;;0.40;;
66619;SDS011;53484;51.356;6.732;2022-12-29T01:01:00;1.50;;;0.60;;
66619;SDS011;53484;51.356;6.732;2022-12-29T01:03:26;1.23;;;0.40;;
66619;SDS011;53484;51.356;6.732;2022-12-29T01:05:52;1.65;;;0.52;;
66619;SDS011;53484;51.356;6.732;2022-12-29T01:08:19;2.00;;;0.43;;
66619;SDS011;53484;51.356;6.732;2022-12-29T01:10:46;1.63;;;0.50;;
66619;SDS011;53484;51.356;6.732;2022-12-29T01:13:11;2.20;;;0.43;;
66619;SDS011;53484;51.356;6.732;2022-12-29T01:15:38;2.00;;;0.68;;
66619;SDS011;53484;51.356;6.732;2022-12-29T01:18:04;1.50;;;0.50;;
66619;SDS011;53484;51.356;6.732;2022-12-29T01:20:30;1.13;;;0.40;;
66619;SDS011;53484;51.356;6.732;2022-12-29T01:22:57;1.05;;;0.30;;
66619;SDS011;53484;51.356;6.732;2022-12-29T01:25:23;1.40;;;0.40;;
66619;SDS011;53484;51.356;6.732;2022-12-29T01:27:51;1.60;;;0.40;;
66619;SDS011;53484;51.356;6.732;2022-12-29T01:30:17;2.30;;;0.45;;
66619;SDS011;53484;51.356;6.732;2022-12-29T01:32:43;1.57;;;0.50;;
66619;SDS011;53484;51.356;6.732;2022-12-29T01:35:10;2.33;;;0.50;;
66619;SDS011;53484;51.356;6.732;2022-12-29T01:37:36;1.42;;;0.32;;
66619;SDS011;53484;51.356;6.732;2022-12-29T01:40:03;1.77;;;0.40;;
66619;SDS011;53484;51.356;6.732;2022-12-29T01:42:29;1.08;;;0.30;;
66619;SDS011;53484;51.356;6.732;2022-12-29T01:44:57;1.90;;;0.40;;
66619;SDS011;53484;51.356;6.732;2022-12-29T01:47:27;1.52;;;0.35;;
66619;SDS011;53484;51.356;6.732;2022-12-29T01:49:55;1.38;;;0.40;;
66619;SDS011;53484;51.356;6.732;2022-12-29T01:52:24;1.42;;;0.40;;
66619;SDS011;53484;51.356;6.732;2022-12-29T01:54:53;1.33;;;0.40;;
66619;SDS011;53484;51.356;6.732;2022-12-29T01:57:22;2.53;;;0.40;;
66619;SDS011;53484;51.356;6.732;2022-12-29T01:59:50;1.50;;;0.30;;
66619;SDS011;53484;51.356;6.732;2022-12-29T02:02:19;2.17;;;0.60;;
66619;SDS011;53484;51.356;6.732;2022-12-29T02:04:46;2.25;;;0.50;;
66619;SDS011;53484;51.356;6.732;2022-12-29T02:07:13;1.63;;;0.47;;
66619;SDS011;53484;51.356;6.732;2022-12-29T02:09:41;1.30;;;0.30;;
66619;SDS011;53484;51.356;6.732;2022-12-29T02:12:08;1.77;;;0.45;;
66619;SDS011;53484;51.356;6.732;2022-12-29T02:14:35;1.95;;;0.45;;
66619;SDS011;53484;51.356;6.732;2022-12-29T02:17:03;2.38;;;0.60;;
66619;SDS011;53484;51.356;6.732;2022-12-29T02:19:40;1.40;;;0.38;;
66619;SDS011;53484;51.356;6.732;2022-12-29T02:22:14;2.20;;;0.50;;
66619;SDS011;53484;51.356;6.732;2022-12-29T02:25:04;2.20;;;0.55;;
66619;SDS011;53484;51.356;6.732;2022-12-29T02:27:37;2.25;;;0.65;;
66619;SDS011;53484;51.356;6.732;2022-12-29T02:30:07;2.63;;;0.50;;
66619;SDS011;53484;51.356;6.732;2022-12-29T02:32:38;1.77;;;0.50;;
66619;SDS011;53484;51.356;6.732;2022-12-29T02:35:07;2.50;;;0.47;;
66619;SDS011;53484;51.356;6.732;2022-12-29T02:37:38;2.72;;;0.50;;
66619;SDS011;53484;51.356;6.732;2022-12-29T02:40:07;3.33;;;0.60;;
66619;SDS011;53484;51.356;6.732;2022-12-29T02:42:39;2.80;;;0.50;;
66619;SDS011;53484;51.356;6.732;2022-12-29T02:45:09;3.45;;;0.70;;
66619;SDS011;53484;51.356;6.732;2022-12-29T02:47:39;3.60;;;0.70;;
66619;SDS011;53484;51.356;6.732;2022-12-29T02:50:08;2.70;;;0.50;;
66619;SDS011;53484;51.356;6.732;2022-12-29T02:52:38;3.50;;;0.60;;
66619;SDS011;53484;51.356;6.732;2022-12-29T02:55:06;2.55;;;0.63;;
66619;SDS011;53484;51.356;6.732;2022-12-29T02:57:32;2.70;;;0.70;;
66619;SDS011;53484;51.356;6.732;2022-12-29T03:00:01;2.75;;;0.60;;
66619;SDS011;53484;51.356;6.732;2022-12-29T03:02:30;2.92;;;0.55;;
66619;SDS011;53484;51.356;6.732;2022-12-29T03:05:10;3.43;;;0.90;;
66619;SDS011;53484;51.356;6.732;2022-12-29T03:07:43;3.40;;;0.65;;
66619;SDS011;53484;51.356;6.732;2022-12-29T03:10:14;2.15;;;0.63;;
66619;SDS011;53484;51.356;6.732;2022-12-29T03:12:45;2.88;;;0.60;;
66619;SDS011;53484;51.356;6.732;2022-12-29T03:15:33;3.03;;;0.50;;
66619;SDS011;53484;51.356;6.732;2022-12-29T03:18:19;3.80;;;0.80;;
66619;SDS011;53484;51.356;6.732;2022-12-29T03:20:49;4.35;;;0.75;;
66619;SDS011;53484;51.356;6.732;2022-12-29T03:23:18;2.55;;;0.70;;
66619;SDS011;53484;51.356;6.732;2022-12-29T03:25:46;2.97;;;0.70;;
66619;SDS011;53484;51.356;6.732;2022-12-29T03:28:13;2.58;;;0.60;;
66619;SDS011;53484;51.356;6.732;2022-12-29T03:30:42;2.27;;;0.60;;
66619;SDS011;53484;51.356;6.732;2022-12-29T03:33:10;2.80;;;0.50;;
66619;SDS011;53484;51.356;6.732;2022-12-29T03:35:38;2.80;;;1.13;;
66619;SDS011;53484;51.356;6.732;2022-12-29T03:38:08;2.92;;;0.60;;
66619;SDS011;53484;51.356;6.732;2022-12-29T03:40:36;2.33;;;0.60;;
66619;SDS011;53484;51.356;6.732;2022-12-29T03:43:03;2.43;;;0.60;;
66619;SDS011;53484;51.356;6.732;2022-12-29T03:45:30;3.42;;;0.52;;
66619;SDS011;53484;51.356;6.732;2022-12-29T03:47:56;2.67;;;0.55;;
66619;SDS011;53484;51.356;6.732;2022-12-29T03:50:24;3.28;;;0.60;;
66619;SDS011;53484;51.356;6.732;2022-12-29T03:52:50;2.13;;;0.68;;
66619;SDS011;53484;51.356;6.732;2022-12-29T03:55:17;2.10;;;0.40;;
66619;SDS011;53484;51.356;6.732;2022-12-29T03:57:44;3.28;;;0.50;;
66619;SDS011;53484;51.356;6.732;2022-12-29T04:00:10;2.47;;;0.50;;
66619;SDS011;53484;51.356;6.732;2022-12-29T04:02:37;2.10;;;0.55;;
66619;SDS011;53484;51.356;6.732;2022-12-29T04:05:03;3.25;;;0.70;;
66619;SDS011;53484;51.356;6.732;2022-12-29T04:07:30;1.73;;;0.50;;
66619;SDS011;53484;51.356;6.732;2022-12-29T04:09:56;3.05;;;0.52;;
66619;SDS011;53484;51.356;6.732;2022-12-29T04:12:24;2.30;;;0.60;;
66619;SDS011;53484;51.356;6.732;2022-12-29T04:14:50;3.00;;;0.70;;
66619;SDS011;53484;51.356;6.732;2022-12-29T04:17:17;1.85;;;0.50;;
66619;SDS011;53484;51.356;6.732;2022-12-29T04:19:44;2.80;;;0.70;;
66619;SDS011;53484;51.356;6.732;2022-12-29T04:22:10;5.13;;;0.50;;
66619;SDS011;53484;51.356;6.732;2022-12-29T04:24:36;2.05;;;0.47;;
66619;SDS011;53484;51.356;6.732;2022-12-29T04:27:03;3.33;;;0.40;;
66619;SDS011;53484;51.356;6.732;2022-12-29T04:29:30;2.00;;;0.50;;
66619;SDS011;53484;51.356;6.732;2022-12-29T04:31:56;2.53;;;0.77;;
66619;SDS011;53484;51.356;6.732;2022-12-29T04:34:23;2.75;;;0.60;;
66619;SDS011;53484;51.356;6.732;2022-12-29T04:36:49;3.08;;;0.47;;
66619;SDS011;53484;51.356;6.732;2022-12-29T04:39:15;2.33;;;0.43;;
66619;SDS011;53484;51.356;6.732;2022-12-29T04:41:41;2.22;;;0.68;;
66619;SDS011;53484;51.356;6.732;2022-12-29T04:44:08;2.10;;;0.50;;
66619;SDS011;53484;51.356;6.732;2022-12-29T04:46:36;2.10;;;0.40;;
66619;SDS011;53484;51.356;6.732;2022-12-29T04:49:02;2.20;;;0.80;;
66619;SDS011;53484;51.356;6.732;2022-12-29T04:51:33;3.05;;;0.68;;
66619;SDS011;53484;51.356;6.732;2022-12-29T04:53:59;2.03;;;0.63;;
66619;SDS011;53484;51.356;6.732;2022-12-29T04:56:25;2.07;;;0.50;;
66619;SDS011;53484;51.356;6.732;2022-12-29T04:58:52;2.38;;;0.40;;
66619;SDS011;53484;51.356;6.732;2022-12-29T05:01:18;4.10;;;0.88;;
66619;SDS011;53484;51.356;6.732;2022-12-29T05:03:46;2.42;;;0.70;;
66619;SDS011;53484;51.356;6.732;2022-12-29T05:06:12;2.97;;;0.75;;
66619;SDS011;53484;51.356;6.732;2022-12-29T05:08:38;2.07;;;0.60;;
66619;SDS011;53484;51.356;6.732;2022-12-29T05:11:04;2.05;;;0.60;;
66619;SDS011;53484;51.356;6.732;2022-12-29T05:13:31;2.90;;;0.50;;
66619;SDS011;53484;51.356;6.732;2022-12-29T05:15:57;4.88;;;0.47;;
66619;SDS011;53484;51.356;6.732;2022-12-29T05:18:24;4.13;;;0.60;;
66619;SDS011;53484;51.356;6.732;2022-12-29T05:20:51;3.60;;;0.70;;
66619;SDS011;53484;51.356;6.732;2022-12-29T05:23:18;2.67;;;0.50;;
66619;SDS011;53484;51.356;6.732;2022-12-29T05:25:44;2.58;;;0.50;;
66619;SDS011;53484;51.356;6.732;2022-12-29T05:28:11;3.75;;;0.35;;
66619;SDS011;53484;51.356;6.732;2022-12-29T05:30:37;2.20;;;0.50;;
66619;SDS011;53484;51.356;6.732;2022-12-29T05:33:03;2.50;;;0.57;;
66619;SDS011;53484;51.356;6.732;2022-12-29T05:35:31;4.15;;;0.57;;
66619;SDS011;53484;51.356;6.732;2022-12-29T05:37:59;2.47;;;0.50;;
66619;SDS011;53484;51.356;6.732;2022-12-29T05:40:25;3.55;;;0.68;;
66619;SDS011;53484;51.356;6.732;2022-12-29T05:42:51;3.80;;;0.80;;
66619;SDS011;53484;51.356;6.732;2022-12-29T05:45:17;4.97;;;0.60;;
66619;SDS011;53484;51.356;6.732;2022-12-29T05:47:44;3.70;;;0.70;;
66619;SDS011;53484;51.356;6.732;2022-12-29T05:50:10;4.00;;;0.80;;
66619;SDS011;53484;51.356;6.732;2022-12-29T05:52:36;4.88;;;0.90;;
66619;SDS011;53484;51.356;6.732;2022-12-29T05:55:04;5.53;;;1.10;;
66619;SDS011;53484;51.356;6.732;2022-12-29T05:57:31;5.57;;;0.80;;
66619;SDS011;53484;51.356;6.732;2022-12-29T05:59:57;4.22;;;0.65;;
66619;SDS011;53484;51.356;6.732;2022-12-29T06:02:23;3.78;;;0.73;;
66619;SDS011;53484;51.356;6.732;2022-12-29T06:04:50;4.15;;;0.82;;
66619;SDS011;53484;51.356;6.732;2022-12-29T06:07:16;5.22;;;0.98;;
66619;SDS011;53484;51.356;6.732;2022-12-29T06:09:42;4.17;;;0.83;;
66619;SDS011;53484;51.356;6.732;2022-12-29T06:12:11;4.85;;;1.00;;
66619;SDS011;53484;51.356;6.732;2022-12-29T06:14:37;6.65;;;1.00;;
66619;SDS011;53484;51.356;6.732;2022-12-29T06:17:04;2.85;;;0.50;;
66619;SDS011;53484;51.356;6.732;2022-12-29T06:19:30;4.90;;;0.90;;
66619;SDS011;53484;51.356;6.732;2022-12-29T06:21:56;2.90;;;0.60;;
66619;SDS011;53484;51.356;6.732;2022-12-29T06:24:22;5.20;;;0.60;;
66619;SDS011;53484;51.356;6.732;2022-12-29T06:26:49;3.38;;;0.52;;
66619;SDS011;53484;51.356;6.732;2022-12-29T06:29:16;3.40;;;0.40;;
66619;SDS011;53484;51.356;6.732;2022-12-29T06:31:43;3.20;;;0.80;;
66619;SDS011;53484;51.356;6.732;2022-12-29T06:34:10;2.70;;;0.50;;
66619;SDS011;53484;51.356;6.732;2022-12-29T06:36:36;4.93;;;0.60;;
66619;SDS011;53484;51.356;6.732;2022-12-29T06:39:03;5.43;;;0.95;;
66619;SDS011;53484;51.356;6.732;2022-12-29T06:41:29;3.45;;;0.80;;
66619;SDS011;53484;51.356;6.732;2022-12-29T06:43:56;4.93;;;1.00;;
66619;SDS011;53484;51.356;6.732;2022-12-29T06:46:24;3.53;;;0.80;;
66619;SDS011;53484;51.356;6.732;2022-12-29T06:48:50;3.75;;;0.73;;
66619;SDS011;53484;51.356;6.732;2022-12-29T06:51:16;3.65;;;0.68;;
66619;SDS011;53484;51.356;6.732;2022-12-29T06:53:43;3.88;;;0.60;;
66619;SDS011;53484;51.356;6.732;2022-12-29T06:56:09;3.72;;;0.95;;
66619;SDS011;53484;51.356;6.732;2022-12-29T06:58:37;4.00;;;0.57;;
66619;SDS011;53484;51.356;6.732;2022-12-29T07:01:04;6.22;;;0.80;;
66619;SDS011;53484;51.356;6.732;2022-12-29T07:03:32;2.58;;;1.02;;
66619;SDS011;53484;51.356;6.732;2022-12-29T07:06:03;4.57;;;0.50;;
66619;SDS011;53484;51.356;6.732;2022-12-29T07:08:30;4.22;;;0.63;;
66619;SDS011;53484;51.356;6.732;2022-12-29T07:10:57;5.10;;;0.90;;
66619;SDS011;53484;51.356;6.732;2022-12-29T07:13:23;6.05;;;0.70;;
66619;SDS011;53484;51.356;6.732;2022-12-29T07:15:49;4.32;;;0.63;;
66619;SDS011;53484;51.356;6.732;2022-12-29T07:18:16;3.83;;;0.93;;
66619;SDS011;53484;51.356;6.732;2022-12-29T07:20:43;5.97;;;0.80;;
66619;SDS011;53484;51.356;6.732;2022-12-29T07:23:10;4.37;;;0.70;;
66619;SDS011;53484;51.356;6.732;2022-12-29T07:25:36;3.60;;;0.60;;
66619;SDS011;53484;51.356;6.732;2022-12-29T07:28:03;5.03;;;0.60;;
66619;SDS011;53484;51.356;6.732;2022-12-29T07:30:29;4.93;;;0.60;;
66619;SDS011;53484;51.356;6.732;2022-12-29T07:32:56;8.15;;;1.15;;
66619;SDS011;53484;51.356;6.732;2022-12-29T07:35:22;6.37;;;0.80;;
66619;SDS011;53484;51.356;6.732;2022-12-29T07:37:50;4.25;;;0.60;;
66619;SDS011;53484;51.356;6.732;2022-12-29T07:40:16;4.43;;;0.80;;
66619;SDS011;53484;51.356;6.732;2022-12-29T07:42:42;2.85;;;0.60;;
66619;SDS011;53484;51.356;6.732;2022-12-29T07:45:09;5.82;;;0.80;;
66619;SDS011;53484;51.356;6.732;2022-12-29T07:47:35;3.20;;;0.60;;
66619;SDS011;53484;51.356;6.732;2022-12-29T07:50:02;4.95;;;0.55;;
66619;SDS011;53484;51.356;6.732;2022-12-29T07:52:28;4.15;;;0.77;;
66619;SDS011;53484;51.356;6.732;2022-12-29T07:54:56;5.07;;;0.80;;
66619;SDS011;53484;51.356;6.732;2022-12-29T07:57:22;7.68;;;0.77;;
66619;SDS011;53484;51.356;6.732;2022-12-29T07:59:49;5.93;;;0.70;;
66619;SDS011;53484;51.356;6.732;2022-12-29T08:02:15;5.13;;;0.82;;
66619;SDS011;53484;51.356;6.732;2022-12-29T08:04:41;8.25;;;1.00;;
66619;SDS011;53484;51.356;6.732;2022-12-29T08:07:07;5.85;;;1.10;;
66619;SDS011;53484;51.356;6.732;2022-12-29T08:09:34;7.28;;;1.10;;
66619;SDS011;53484;51.356;6.732;2022-12-29T08:12:01;4.80;;;0.90;;
66619;SDS011;53484;51.356;6.732;2022-12-29T08:14:28;6.30;;;0.90;;
66619;SDS011;53484;51.356;6.732;2022-12-29T08:16:54;6.93;;;0.70;;
66619;SDS011;53484;51.356;6.732;2022-12-29T08:19:20;5.80;;;0.90;;
66619;SDS011;53484;51.356;6.732;2022-12-29T08:21:47;4.00;;;0.68;;
66619;SDS011;53484;51.356;6.732;2022-12-29T08:24:13;7.37;;;0.73;;
66619;SDS011;53484;51.356;6.732;2022-12-29T08:26:39;6.55;;;0.80;;
66619;SDS011;53484;51.356;6.732;2022-12-29T08:29:07;4.75;;;0.60;;
66619;SDS011;53484;51.356;6.732;2022-12-29T08:31:33;5.15;;;0.80;;
66619;SDS011;53484;51.356;6.732;2022-12-29T08:34:00;4.85;;;0.70;;
66619;SDS011;53484;51.356;6.732;2022-12-29T08:36:28;5.57;;;0.83;;
66619;SDS011;53484;51.356;6.732;2022-12-29T08:38:54;5.00;;;0.70;;
66619;SDS011;53484;51.356;6.732;2022-12-29T08:41:21;4.05;;;0.88;;
66619;SDS011;53484;51.356;6.732;2022-12-29T08:43:47;5.90;;;0.93;;
66619;SDS011;53484;51.356;6.732;2022-12-29T08:46:15;7.47;;;1.10;;
66619;SDS011;53484;51.356;6.732;2022-12-29T08:48:41;4.47;;;0.70;;
66619;SDS011;53484;51.356;6.732;2022-12-29T08:51:08;8.05;;;0.90;;
66619;SDS011;53484;51.356;6.732;2022-12-29T08:53:34;4.45;;;1.00;;
66619;SDS011;53484;51.356;6.732;2022-12-29T08:56:01;6.50;;;0.85;;
66619;SDS011;53484;51.356;6.732;2022-12-29T08:58:28;13.38;;;1.10;;
66619;SDS011;53484;51.356;6.732;2022-12-29T09:00:55;5.17;;;0.60;;
66619;SDS011;53484;51.356;6.732;2022-12-29T09:03:23;8.77;;;0.93;;
66619;SDS011;53484;51.356;6.732;2022-12-29T09:05:50;6.60;;;1.13;;
66619;SDS011;53484;51.356;6.732;2022-12-29T09:08:16;7.13;;;1.15;;
66619;SDS011;53484;51.356;6.732;2022-12-29T09:10:43;4.22;;;0.98;;
66619;SDS011;53484;51.356;6.732;2022-12-29T09:13:10;7.67;;;1.43;;
66619;SDS011;53484;51.356;6.732;2022-12-29T09:15:36;9.77;;;0.70;;
66619;SDS011;53484;51.356;6.732;2022-12-29T09:18:02;8.65;;;1.42;;
66619;SDS011;53484;51.356;6.732;2022-12-29T09:20:30;10.23;;;1.00;;
66619;SDS011;53484;51.356;6.732;2022-12-29T09:22:56;6.85;;;1.20;;
66619;SDS011;53484;51.356;6.732;2022-12-29T09:25:23;7.57;;;1.10;;
66619;SDS011;53484;51.356;6.732;2022-12-29T09:27:50;4.95;;;1.02;;
66619;SDS011;53484;51.356;6.732;2022-12-29T09:30:17;5.10;;;0.63;;
66619;SDS011;53484;51.356;6.732;2022-12-29T09:32:44;4.00;;;0.65;;
66619;SDS011;53484;51.356;6.732;2022-12-29T09:35:10;9.40;;;0.93;;
66619;SDS011;53484;51.356;6.732;2022-12-29T09:37:38;4.70;;;1.10;;
66619;SDS011;53484;51.356;6.732;2022-12-29T09:40:05;7.43;;;0.95;;
66619;SDS011;53484;51.356;6.732;2022-12-29T09:42:32;5.78;;;0.73;;
66619;SDS011;53484;51.356;6.732;2022-12-29T09:45:04;6.65;;;1.00;;
66619;SDS011;53484;51.356;6.732;2022-12-29T09:47:31;3.08;;;0.60;;
66619;SDS011;53484;51.356;6.732;2022-12-29T09:49:58;6.97;;;0.80;;
66619;SDS011;53484;51.356;6.732;2022-12-29T09:52:28;9.13;;;1.50;;
66619;SDS011;53484;51.356;6.732;2022-12-29T09:54:56;6.13;;;1.00;;
66619;SDS011;53484;51.356;6.732;2022-12-29T09:57:24;6.95;;;0.95;;
66619;SDS011;53484;51.356;6.732;2022-12-29T09:59:52;6.45;;;1.00;;
66619;SDS011;53484;51.356;6.732;2022-12-29T10:02:26;4.53;;;1.47;;
66619;SDS011;53484;51.356;6.732;2022-12-29T10:04:55;8.98;;;0.90;;
66619;SDS011;53484;51.356;6.732;2022-12-29T10:07:24;6.82;;;0.98;;
66619;SDS011;53484;51.356;6.732;2022-12-29T10:09:53;4.25;;;0.93;;
66619;SDS011;53484;51.356;6.732;2022-12-29T10:12:28;6.28;;;0.90;;
66619;SDS011;53484;51.356;6.732;2022-12-29T10:14:58;6.73;;;0.87;;
66619;SDS011;53484;51.356;6.732;2022-12-29T10:17:27;7.13;;;0.70;;
66619;SDS011;53484;51.356;6.732;2022-12-29T10:20:00;8.70;;;1.08;;
66619;SDS011;53484;51.356;6.732;2022-12-29T10:22:32;9.80;;;1.00;;
66619;SDS011;53484;51.356;6.732;2022-12-29T10:25:00;7.93;;;0.98;;
66619;SDS011;53484;51.356;6.732;2022-12-29T10:27:31;6.17;;;0.77;;
66619;SDS011;53484;51.356;6.732;2022-12-29T10:29:59;4.40;;;0.90;;
66619;SDS011;53484;51.356;6.732;2022-12-29T10:32:29;8.45;;;1.30;;
66619;SDS011;53484;51.356;6.732;2022-12-29T10:34:58;5.90;;;0.80;;
66619;SDS011;53484;51.356;6.732;2022-12-29T10:37:29;7.03;;;0.75;;
66619;SDS011;53484;51.356;6.732;2022-12-29T10:39:56;10.10;;;1.07;;
66619;SDS011;53484;51.356;6.732;2022-12-29T10:42:25;7.35;;;1.17;;
66619;SDS011;53484;51.356;6.732;2022-12-29T10:44:54;8.18;;;1.02;;
66619;SDS011;53484;51.356;6.732;2022-12-29T10:47:21;14.88;;;1.27;;
66619;SDS011;53484;51.356;6.732;2022-12-29T10:49:49;8.45;;;0.90;;
66619;SDS011;53484;51.356;6.732;2022-12-29T10:52:16;10.00;;;1.27;;
66619;SDS011;53484;51.356;6.732;2022-12-29T10:54:45;10.05;;;1.15;;
66619;SDS011;53484;51.356;6.732;2022-12-29T10:57:14;5.18;;;0.60;;
66619;SDS011;53484;51.356;6.732;2022-12-29T10:59:45;7.57;;;1.08;;
66619;SDS011;53484;51.356;6.732;2022-12-29T11:02:21;6.38;;;1.33;;
66619;SDS011;53484;51.356;6.732;2022-12-29T11:04:52;5.47;;;0.90;;
66619;SDS011;53484;51.356;6.732;2022-12-29T11:07:21;8.07;;;0.82;;
66619;SDS011;53484;51.356;6.732;2022-12-29T11:09:48;7.82;;;1.35;;
66619;SDS011;53484;51.356;6.732;2022-12-29T11:12:18;7.22;;;1.00;;
66619;SDS011;53484;51.356;6.732;2022-12-29T11:14:45;6.28;;;0.95;;
66619;SDS011;53484;51.356;6.732;2022-12-29T11:17:14;3.60;;;0.63;;
66619;SDS011;53484;51.356;6.732;2022-12-29T11:19:42;15.52;;;1.40;;
66619;SDS011;53484;51.356;6.732;2022-12-29T11:22:12;7.82;;;0.85;;
66619;SDS011;53484;51.356;6.732;2022-12-29T11:24:42;8.63;;;1.05;;
66619;SDS011;53484;51.356;6.732;2022-12-29T11:27:13;4.88;;;0.60;;
66619;SDS011;53484;51.356;6.732;2022-12-29T11:29:40;7.93;;;0.93;;
66619;SDS011;53484;51.356;6.732;2022-12-29T11:32:10;11.88;;;1.10;;
66619;SDS011;53484;51.356;6.732;2022-12-29T11:34:37;8.77;;;1.23;;
66619;SDS011;53484;51.356;6.732;2022-12-29T11:37:05;7.85;;;0.68;;
66619;SDS011;53484;51.356;6.732;2022-12-29T11:39:34;8.30;;;1.00;;
66619;SDS011;53484;51.356;6.732;2022-12-29T11:42:03;7.23;;;1.17;;
66619;SDS011;53484;51.356;6.732;2022-12-29T11:44:31;7.55;;;0.80;;
66619;SDS011;53484;51.356;6.732;2022-12-29T11:46:58;7.38;;;0.90;;
66619;SDS011;53484;51.356;6.732;2022-12-29T11:49:25;9.73;;;1.25;;
66619;SDS011;53484;51.356;6.732;2022-12-29T11:51:52;5.40;;;0.70;;
66619;SDS011;53484;51.356;6.732;2022-12-29T11:54:23;5.27;;;1.00;;
66619;SDS011;53484;51.356;6.732;2022-12-29T11:56:51;7.47;;;1.05;;
66619;SDS011;53484;51.356;6.732;2022-12-29T11:59:23;8.73;;;0.93;;
66619;SDS011;53484;51.356;6.732;2022-12-29T12:01:50;6.88;;;0.80;;
66619;SDS011;53484;51.356;6.732;2022-12-29T12:04:18;5.00;;;0.90;;
66619;SDS011;53484;51.356;6.732;2022-12-29T12:06:48;8.63;;;0.97;;
66619;SDS011;53484;51.356;6.732;2022-12-29T12:09:18;7.38;;;0.80;;
66619;SDS011;53484;51.356;6.732;2022-12-29T12:11:49;6.03;;;0.80;;
66619;SDS011;53484;51.356;6.732;2022-12-29T12:14:20;9.80;;;1.50;;
66619;SDS011;53484;51.356;6.732;2022-12-29T12:16:48;9.23;;;1.15;;
66619;SDS011;53484;51.356;6.732;2022-12-29T12:19:20;8.37;;;1.07;;
66619;SDS011;53484;51.356;6.732;2022-12-29T12:21:50;6.47;;;0.80;;
66619;SDS011;53484;51.356;6.732;2022-12-29T12:24:30;7.57;;;0.70;;
66619;SDS011;53484;51.356;6.732;2022-12-29T12:27:01;11.45;;;1.60;;
66619;SDS011;53484;51.356;6.732;2022-12-29T12:29:32;8.63;;;0.70;;
66619;SDS011;53484;51.356;6.732;2022-12-29T12:32:01;6.07;;;0.90;;
66619;SDS011;53484;51.356;6.732;2022-12-29T12:34:30;7.05;;;1.10;;
66619;SDS011;53484;51.356;6.732;2022-12-29T12:37:06;6.28;;;1.00;;
66619;SDS011;53484;51.356;6.732;2022-12-29T12:39:39;8.07;;;0.98;;
66619;SDS011;53484;51.356;6.732;2022-12-29T12:42:16;9.45;;;0.80;;
66619;SDS011;53484;51.356;6.732;2022-12-29T12:44:50;9.47;;;1.00;;
66619;SDS011;53484;51.356;6.732;2022-12-29T12:47:24;6.25;;;1.17;;
66619;SDS011;53484;51.356;6.732;2022-12-29T12:52:47;5.05;;;1.05;;
66619;SDS011;53484;51.356;6.732;2022-12-29T12:55:24;6.88;;;1.48;;
66619;SDS011;53484;51.356;6.732;2022-12-29T12:57:57;6.63;;;0.70;;
66619;SDS011;53484;51.356;6.732;2022-12-29T13:00:28;5.38;;;0.90;;
66619;SDS011;53484;51.356;6.732;2022-12-29T13:03:03;6.45;;;1.00;;
66619;SDS011;53484;51.356;6.732;2022-12-29T13:05:33;7.78;;;1.15;;
66619;SDS011;53484;51.356;6.732;2022-12-29T13:08:18;7.63;;;1.13;;
66619;SDS011;53484;51.356;6.732;2022-12-29T13:10:50;10.40;;;1.03;;
66619;SDS011;53484;51.356;6.732;2022-12-29T13:13:29;6.20;;;1.20;;
66619;SDS011;53484;51.356;6.732;2022-12-29T13:16:00;8.25;;;1.08;;
66619;SDS011;53484;51.356;6.732;2022-12-29T13:18:29;7.45;;;1.52;;
66619;SDS011;53484;51.356;6.732;2022-12-29T13:20:59;8.38;;;1.10;;
66619;SDS011;53484;51.356;6.732;2022-12-29T13:23:29;8.90;;;1.10;;
66619;SDS011;53484;51.356;6.732;2022-12-29T13:25:59;8.57;;;0.85;;
66619;SDS011;53484;51.356;6.732;2022-12-29T13:28:30;6.88;;;1.40;;
66619;SDS011;53484;51.356;6.732;2022-12-29T13:31:00;6.65;;;1.08;;
66619;SDS011;53484;51.356;6.732;2022-12-29T13:33:28;9.65;;;1.15;;
66619;SDS011;53484;51.356;6.732;2022-12-29T13:35:59;5.33;;;0.80;;
66619;SDS011;53484;51.356;6.732;2022-12-29T13:38:29;7.47;;;1.10;;
66619;SDS011;53484;51.356;6.732;2022-12-29T13:40:59;6.22;;;0.80;;
66619;SDS011;53484;51.356;6.732;2022-12-29T13:43:26;7.13;;;0.90;;
66619;SDS011;53484;51.356;6.732;2022-12-29T13:45:57;7.72;;;1.20;;
66619;SDS011;53484;51.356;6.732;2022-12-29T13:48:25;7.77;;;1.30;;
66619;SDS011;53484;51.356;6.732;2022-12-29T13:50:57;7.03;;;1.00;;
66619;SDS011;53484;51.356;6.732;2022-12-29T13:53:26;7.25;;;0.90;;
66619;SDS011;53484;51.356;6.732;2022-12-29T13:55:58;7.15;;;1.00;;
66619;SDS011;53484;51.356;6.732;2022-12-29T13:58:26;7.90;;;1.42;;
66619;SDS011;53484;51.356;6.732;2022-12-29T14:00:55;7.37;;;1.20;;
66619;SDS011;53484;51.356;6.732;2022-12-29T14:03:31;9.60;;;0.88;;
66619;SDS011;53484;51.356;6.732;2022-12-29T14:06:12;12.48;;;0.98;;
66619;SDS011;53484;51.356;6.732;2022-12-29T14:08:40;8.25;;;1.25;;
66619;SDS011;53484;51.356;6.732;2022-12-29T14:11:07;9.77;;;1.45;;
66619;SDS011;53484;51.356;6.732;2022-12-29T14:13:36;5.53;;;1.07;;
66619;SDS011;53484;51.356;6.732;2022-12-29T14:16:03;10.50;;;2.15;;
66619;SDS011;53484;51.356;6.732;2022-12-29T14:18:32;10.18;;;1.65;;
66619;SDS011;53484;51.356;6.732;2022-12-29T14:20:59;8.27;;;1.77;;
66619;SDS011;53484;51.356;6.732;2022-12-29T14:23:28;9.60;;;0.98;;
66619;SDS011;53484;51.356;6.732;2022-12-29T14:25:57;5.30;;;1.20;;
66619;SDS011;53484;51.356;6.732;2022-12-29T14:28:25;6.85;;;1.13;;
66619;SDS011;53484;51.356;6.732;2022-12-29T14:30:52;6.20;;;1.13;;
66619;SDS011;53484;51.356;6.732;2022-12-29T14:33:18;7.85;;;1.00;;
66619;SDS011;53484;51.356;6.732;2022-12-29T14:35:48;7.30;;;1.65;;
66619;SDS011;53484;51.356;6.732;2022-12-29T14:38:21;12.43;;;1.13;;
66619;SDS011;53484;51.356;6.732;2022-12-29T14:40:49;8.95;;;1.48;;
66619;SDS011;53484;51.356;6.732;2022-12-29T14:43:19;5.20;;;0.93;;
66619;SDS011;53484;51.356;6.732;2022-12-29T14:45:48;16.83;;;1.48;;
66619;SDS011;53484;51.356;6.732;2022-12-29T14:48:21;9.70;;;1.00;;
66619;SDS011;53484;51.356;6.732;2022-12-29T14:50:49;6.07;;;0.67;;
66619;SDS011;53484;51.356;6.732;2022-12-29T14:55:57;10.15;;;1.00;;
66619;SDS011;53484;51.356;6.732;2022-12-29T14:58:25;7.75;;;0.85;;
66619;SDS011;53484;51.356;6.732;2022-12-29T15:00:53;7.20;;;1.13;;
66619;SDS011;53484;51.356;6.732;2022-12-29T15:03:20;9.20;;;1.20;;